Latest Weather Observations for Brisbane Airport

IDQ60901

Issued at 11:55 am EST Monday 15 September 2014 (issued every 10 minutes, with the page automatically refreshed every 10 minutes)

About weather observations | Map of Brisbane area stations | Latest observations for Brisbane area | Other Formats
Station Details ID: 040842 Name: BRISBANE AERO Lat: -27.39 Lon: 153.13 Height: 4.51 m
Data from the previous 72 hours. | See also: Recent months at Brisbane Airport
Date/Time
EST
Tmp

°C
App
Tmp
°C
Dew
Point
°C
Rel
Hum
%
Delta-T

°C
Wind Press
QNH
hPa
Press
MSL
hPa
Rain
since
9 am
mm
Dir
 
Spd
km/h
Gust
km/h
Spd
kts
Gust
kts
15/11:30am 22.6 19.9 11.7 50 6.1 NNE 17 22 9 12 1017.7 - 0.0
15/11:00am 22.2 19.7 11.0 49 6.2 N 15 20 8 11 1018.2 - 0.0
15/10:30am 21.4 19.0 11.5 53 5.5 N 15 20 8 11 1018.5 - 0.0
15/10:00am 21.7 18.9 11.4 52 5.7 N 17 24 9 13 1019.0 - 0.0
15/09:30am 21.0 18.6 12.7 59 4.7 N 17 24 9 13 1019.4 - 0.0
15/09:00am 20.1 18.1 12.6 62 4.2 NNW 15 20 8 11 1019.7 1019.7 0.0
15/08:30am 19.7 19.2 12.1 61 4.2 WSW 6 11 3 6 1019.8 - 0.0
15/08:00am 17.8 16.8 13.4 75 2.5 SSW 11 13 6 7 1019.7 - 0.0
15/07:30am 16.4 15.0 13.4 82 1.7 SSW 13 15 7 8 1019.8 - 0.0
15/07:00am 15.2 14.7 12.8 85 1.3 S 7 11 4 6 1019.4 - 0.0
15/06:30am 13.6 11.9 12.3 92 0.7 S 13 15 7 8 1019.1 - 0.0
15/06:00am 12.3 11.0 11.3 94 0.5 SSW 9 15 5 8 1019.0 1019.0 0.0
15/05:30am 12.2 11.4 11.0 92 0.6 SW 6 7 3 4 1018.5 - 0.0
15/05:00am 12.2 11.8 11.2 94 0.5 W 4 7 2 4 1018.4 - 0.0
15/04:30am 12.0 10.9 10.8 92 0.6 W 7 9 4 5 1018.4 - 0.0
15/04:00am 12.6 13.0 11.3 92 0.7 CALM 0 0 0 0 1018.0 - 0.0
15/03:30am 13.4 12.3 11.9 91 0.8 SSW 9 9 5 5 1018.1 - 0.0
15/03:00am 13.9 12.8 11.8 87 1.1 WSW 9 19 5 10 1018.2 1018.2 0.0
15/02:30am 14.4 13.8 12.2 87 1.2 W 7 9 4 5 1018.4 - 0.0
15/02:00am 14.4 13.8 12.2 87 1.2 WSW 7 9 4 5 1018.7 - 0.0
15/01:30am 14.1 13.5 12.2 88 1.0 W 7 11 4 6 1018.9 - 0.0
15/01:00am 14.2 15.0 12.4 89 1.0 CALM 0 0 0 0 1019.2 - 0.0
15/12:30am 14.6 14.3 12.6 88 1.1 W 6 7 3 4 1019.5 - 0.0
15/12:00am 14.9 14.4 12.7 87 1.2 W 7 11 4 6 1019.7 1019.7 0.0
 
Date/Time
EST
Tmp

°C
App
Tmp
°C
Dew
Point
°C
Rel
Hum
%
Delta-T

°C
Wind Press
QNH
hPa
Press
MSL
hPa
Rain
since
9 am
mm
Dir
 
Spd
km/h
Gust
km/h
Spd
kts
Gust
kts
14/11:30pm 15.4 14.5 12.7 84 1.5 NW 9 19 5 10 1019.8 - 0.0
14/11:00pm 16.1 15.3 12.8 81 1.8 WNW 9 11 5 6 1019.9 - 0.0
14/10:30pm 16.2 15.4 13.0 81 1.8 W 9 13 5 7 1020.0 - 0.0
14/10:00pm 16.8 16.2 13.4 80 1.9 WNW 9 19 5 10 1020.0 - 0.0
14/09:30pm 16.7 14.8 13.1 79 2.0 N 15 19 8 10 1020.0 - 0.0
14/09:00pm 17.0 15.1 12.9 77 2.3 N 15 17 8 9 1020.1 1020.1 0.0
14/08:30pm 17.3 14.9 12.8 75 2.5 N 17 19 9 10 1020.0 - 0.0
14/08:00pm 17.5 15.2 13.0 75 2.5 N 17 19 9 10 1020.1 - 0.0
14/07:30pm 17.2 15.3 12.9 76 2.4 NNE 15 19 8 10 1020.1 - 0.0
14/07:00pm 17.0 15.1 13.1 78 2.2 NNE 15 17 8 9 1019.9 - 0.0
14/06:30pm 17.9 15.9 12.7 71 2.9 NNE 15 19 8 10 1019.7 - 0.0
14/06:00pm 18.4 16.4 12.7 69 3.2 NE 15 20 8 11 1019.5 1019.5 0.0
14/05:30pm 19.4 17.0 12.6 64 3.8 NE 17 20 9 11 1019.4 - 0.0
14/05:00pm 20.1 18.1 12.8 63 4.1 NE 15 19 8 10 1019.2 - 0.0
14/04:30pm 20.5 18.4 13.7 65 3.9 NNE 17 22 9 12 1019.0 - 0.0
14/04:00pm 21.3 18.5 13.3 60 4.6 NE 20 26 11 14 1018.9 - 0.0
14/03:30pm 21.6 18.5 12.2 55 5.3 NE 20 28 11 15 1018.9 - 0.0
14/03:00pm 22.2 18.2 11.8 51 5.8 NE 24 30 13 16 1018.9 1018.9 0.0
14/02:30pm 22.5 19.6 12.2 52 5.8 ENE 19 24 10 13 1019.2 - 0.0
14/02:00pm 22.3 19.1 11.8 51 5.9 NNE 20 30 11 16 1019.4 - 0.0
14/01:30pm 22.1 19.0 11.5 51 5.9 NE 19 24 10 13 1019.8 - 0.0
14/01:00pm 22.4 19.4 10.8 47 6.4 NNE 17 26 9 14 1020.3 - 0.0
14/12:30pm 22.8 19.9 11.1 47 6.5 NE 17 22 9 12 1020.7 - 0.0
14/12:00pm 22.3 19.7 12.0 52 5.8 NNE 17 24 9 13 1021.3 1021.3 0.0
14/11:30am 21.8 19.4 12.6 56 5.2 NNE 17 24 9 13 1021.9 - 0.0
14/11:00am 22.6 20.6 12.6 53 5.7 N 15 24 8 13 1022.2 - 0.0
14/10:30am 21.8 19.7 12.4 55 5.3 NE 15 20 8 11 1022.6 - 0.0
14/10:00am 21.1 19.5 12.8 59 4.7 ENE 13 20 7 11 1022.8 - 0.0
14/09:30am 21.0 20.2 12.9 60 4.6 SE 9 15 5 8 1023.2 - 0.0
14/09:00am 19.9 19.1 12.8 63 4.0 S 9 15 5 8 1023.2 1023.2 0.0
14/08:30am 18.8 17.2 12.7 67 3.4 SW 13 17 7 9 1023.2 - 0.0
14/08:00am 17.1 15.4 12.4 74 2.6 SSW 13 17 7 9 1023.0 - 0.0
14/07:30am 15.6 13.2 12.5 82 1.7 SSW 17 19 9 10 1022.9 - 0.0
14/07:00am 14.0 11.4 12.1 88 1.0 SSW 17 20 9 11 1022.9 - 0.0
14/06:30am 13.6 10.5 11.7 88 1.0 SSW 19 24 10 13 1022.8 - 0.0
14/06:00am 12.9 10.0 11.0 88 1.0 SSW 17 20 9 11 1022.5 1022.5 0.0
14/05:30am 12.5 9.6 11.0 90 0.8 SSW 17 20 9 11 1022.2 - 0.0
14/05:00am 12.7 10.2 11.0 89 0.9 SSW 15 19 8 10 1021.9 - 0.0
14/04:30am 11.8 9.1 10.4 91 0.7 SSW 15 19 8 10 1021.7 - 0.0
14/04:00am 11.8 9.5 10.4 91 0.7 SSW 13 15 7 8 1021.5 - 0.0
14/03:30am 12.6 10.1 10.9 89 0.9 SSW 15 19 8 10 1021.7 - 0.0
14/03:00am 12.4 9.9 10.9 90 0.8 SSW 15 19 8 10 1022.1 1022.1 0.0
14/02:30am 12.7 10.6 11.2 91 0.8 SSW 13 17 7 9 1022.3 - 0.0
14/02:00am 13.4 11.6 12.1 92 0.7 SSW 13 17 7 9 1022.5 - 0.0
14/01:30am 15.5 14.4 13.0 85 1.4 S 11 13 6 7 1022.9 - 0.0
14/01:00am 15.1 13.5 12.9 87 1.2 SSW 13 17 7 9 1023.1 - 0.0
14/12:30am 13.8 12.7 12.1 89 0.9 SSW 9 11 5 6 1023.1 - 0.0
14/12:00am 14.8 14.9 12.6 87 1.2 SSW 4 9 2 5 1023.3 1023.3 0.0
 
Date/Time
EST
Tmp

°C
App
Tmp
°C
Dew
Point
°C
Rel
Hum
%
Delta-T

°C
Wind Press
QNH
hPa
Press
MSL
hPa
Rain
since
9 am
mm
Dir
 
Spd
km/h
Gust
km/h
Spd
kts
Gust
kts
13/11:30pm 14.7 14.9 12.9 89 1.0 SSW 4 6 2 3 1023.2 - 0.0
13/11:00pm 15.3 14.4 12.7 84 1.4 SSW 9 9 5 5 1023.8 - 0.0
13/10:30pm 15.9 15.3 13.4 85 1.4 SSW 9 13 5 7 1024.3 - 0.0
13/10:00pm 16.2 15.8 13.1 82 1.7 S 7 9 4 5 1024.5 - 0.0
13/09:30pm 17.8 17.2 12.4 70 3.0 ESE 7 11 4 6 1024.5 - 0.0
13/09:00pm 18.2 17.3 13.6 74 2.6 E 11 15 6 8 1024.3 1024.2 0.0
13/08:30pm 18.5 17.7 13.9 74 2.6 ESE 11 17 6 9 1024.1 - 0.0
13/08:00pm 19.0 17.7 12.5 66 3.6 ESE 11 15 6 8 1024.1 - 0.0
13/07:30pm 19.2 18.6 13.6 70 3.2 E 9 13 5 7 1023.9 - 0.0
13/07:00pm 18.9 17.4 11.8 63 3.9 E 11 17 6 9 1023.6 - 0.0
13/06:30pm 19.1 18.1 13.5 70 3.2 E 11 15 6 8 1022.9 - 0.0
13/06:00pm 19.6 18.1 13.2 66 3.6 E 13 19 7 10 1022.8 1022.8 0.0
13/05:30pm 19.8 18.7 13.1 65 3.8 ENE 11 13 6 7 1022.6 - 0.0
13/05:00pm 20.1 18.1 12.8 63 4.1 ENE 15 24 8 13 1022.5 - 0.0
13/04:30pm 20.4 18.4 12.8 61 4.3 ENE 15 22 8 12 1022.2 - 0.0
13/04:00pm 20.8 18.2 12.0 57 4.9 NE 17 22 9 12 1021.8 - 0.0
13/03:30pm 21.3 19.3 12.6 57 4.9 ENE 15 22 8 12 1021.8 - 0.0
13/03:00pm 21.4 18.6 12.5 57 5.0 NNE 19 22 10 12 1021.9 1021.9 0.0
13/02:30pm 22.0 19.4 12.0 53 5.6 NE 17 20 9 11 1022.0 - 0.0
13/02:00pm 21.8 19.1 12.8 56 5.1 NNE 19 24 10 13 1022.0 - 0.0
13/01:30pm 22.2 18.7 10.2 46 6.5 NNE 19 24 10 13 1022.4 - 0.0
13/01:00pm 21.8 19.0 11.3 51 5.8 NNE 17 22 9 12 1022.7 - 0.0
13/12:30pm 22.0 19.1 10.9 49 6.1 NNE 17 28 9 15 1022.8 - 0.0
13/12:00pm 22.0 19.2 11.3 50 5.9 NNE 17 22 9 12 1023.1 1023.1 0.0
13/11:30am 22.2 20.2 11.6 51 5.9 ENE 13 19 7 10 1023.3 - 0.0
13/11:00am 21.7 19.6 11.2 51 5.8 ENE 13 22 7 12 1023.9 - 0.0
13/10:30am 21.4 19.0 11.5 53 5.5 NE 15 24 8 13 1024.3 - 0.0
13/10:00am 21.6 19.3 11.7 53 5.5 ENE 15 22 8 12 1024.3 - 0.0
13/09:30am 21.3 19.4 11.8 54 5.3 E 13 24 7 13 1024.3 - 0.0
13/09:00am 21.7 20.0 12.5 56 5.2 ENE 13 20 7 11 1024.4 1024.3 0.0
13/08:30am 21.2 19.1 12.3 57 5.0 ENE 15 20 8 11 1024.3 - 0.0
13/08:00am 20.7 18.4 11.7 56 5.0 NE 15 22 8 12 1023.9 - 0.0
13/07:30am 20.4 18.9 13.0 62 4.2 ENE 13 20 7 11 1023.6 - 0.0
13/07:00am 19.5 19.6 14.5 73 2.9 E 7 11 4 6 1023.3 - 0.0
13/06:30am 19.1 19.3 14.6 75 2.6 ESE 7 9 4 5 1023.0 - 0.0
13/06:00am 18.3 19.3 14.3 77 2.3 E 2 9 1 5 1022.7 1022.7 0.0
13/05:30am 18.5 18.4 13.9 74 2.6 ENE 7 9 4 5 1022.4 - 0.0
13/05:00am 18.2 17.7 13.8 75 2.5 E 9 11 5 6 1022.1 - 0.0
13/04:30am 18.3 18.1 13.7 74 2.6 E 7 11 4 6 1022.0 - 0.0
13/04:00am 18.2 17.8 14.0 76 2.4 E 9 13 5 7 1021.7 - 0.0
13/03:30am 16.0 16.0 14.1 88 1.1 E 7 11 4 6 1022.0 - 0.0
13/03:00am 15.9 15.4 13.8 87 1.2 E 9 13 5 7 1022.1 1022.1 0.0
13/02:30am 16.1 15.8 14.3 89 1.0 E 9 15 5 8 1022.3 - 0.0
13/02:00am 16.5 17.5 14.4 87 1.2 SE 2 9 1 5 1022.3 - 0.0
13/01:30am 16.2 17.6 14.4 89 1.0 CALM 0 0 0 0 1022.5 - 0.0
13/01:00am 16.5 16.8 14.6 88 1.1 S 6 7 3 4 1022.8 - 0.0
13/12:30am 17.7 18.2 14.9 84 1.6 SE 6 7 3 4 1022.8 - 0.0
13/12:00am 16.8 17.6 14.7 87 1.2 SE 4 7 2 4 1023.1 1023.1 0.0
 
Date/Time
EST
Tmp

°C
App
Tmp
°C
Dew
Point
°C
Rel
Hum
%
Delta-T

°C
Wind Press
QNH
hPa
Press
MSL
hPa
Rain
since
9 am
mm
Dir
 
Spd
km/h
Gust
km/h
Spd
kts
Gust
kts
12/11:30pm 17.5 18.6 14.7 83 1.6 SE 2 7 1 4 1023.1 - 0.0
12/11:00pm 18.3 18.5 14.8 80 2.0 E 7 9 4 5 1022.9 - 0.0
12/10:30pm 19.0 19.4 15.2 78 2.2 E 7 11 4 6 1023.0 - 0.0
12/10:00pm 18.7 20.5 15.6 82 1.8 CALM 0 0 0 0 1023.2 - 0.0
12/09:30pm 18.5 18.9 15.2 81 1.9 E 7 9 4 5 1023.1 - 0.0
12/09:00pm 18.6 19.0 15.4 81 1.9 E 7 9 4 5 1023.1 1023.1 0.0
12/08:30pm 18.6 19.0 15.2 80 2.0 E 7 9 4 5 1023.0 - 0.0
12/08:00pm 18.8 19.1 15.0 78 2.2 E 7 11 4 6 1022.8 - 0.0
12/07:30pm 19.5 19.2 14.5 73 2.9 E 9 15 5 8 1022.6 - 0.0
12/07:00pm 19.6 19.1 14.8 74 2.8 E 11 19 6 10 1022.4 - 0.0
12/06:30pm 20.0 18.8 13.9 68 3.5 ESE 13 19 7 10 1022.1 - 0.0
12/06:00pm 20.1 18.9 14.0 68 3.5 ESE 13 20 7 11 1021.7 1021.7 0.0
12/05:30pm 20.3 19.1 13.9 66 3.7 ESE 13 24 7 13 1021.5 - 0.0
12/05:00pm 20.4 19.3 14.2 67 3.6 ESE 13 26 7 14 1021.3 - 0.0
12/04:30pm 21.0 20.0 14.7 67 3.7 E 13 26 7 14 1021.0 - 0.0
12/04:00pm 21.6 20.0 15.0 66 3.9 E 17 26 9 14 1020.9 - 0.0
12/03:30pm 22.0 20.7 14.9 64 4.2 ESE 15 22 8 12 1020.8 - 0.0
12/03:00pm 22.3 20.5 14.4 61 4.6 ESE 17 30 9 16 1020.7 1020.7 0.0
12/02:30pm 22.8 21.2 15.0 61 4.6 ESE 17 26 9 14 1020.6 - 0.0
12/02:00pm 22.7 21.2 15.3 63 4.4 E 17 26 9 14 1020.8 - 0.0
12/01:30pm 22.1 20.3 15.4 65 4.0 ENE 19 28 10 15 1021.1 - 0.0
12/01:00pm 23.4 21.9 15.2 60 4.9 E 17 24 9 13 1021.2 - 0.0
12/12:30pm 22.8 21.5 14.8 60 4.7 ENE 15 24 8 13 1021.4 - 0.0
12/12:00pm 22.8 21.7 15.2 62 4.5 ENE 15 24 8 13 1021.7 1021.7 0.0

Latest Capital City Observations: Canberra | Sydney | Melbourne | Brisbane | Adelaide | Perth | Hobart | Darwin

Other Formats:

Comma delimited format used in spreadsheet applications
http://www.bom.gov.au/fwo/IDQ60901/IDQ60901.94578.axf

JavaScript Object Notation format (JSON) in row-major order
http://www.bom.gov.au/fwo/IDQ60901/IDQ60901.94578.json